Terminal Aerodrome Forecast
Issued by NWS

Home | Current Version | Previous Version | Text Only | Print | Product List | Glossary On
Versions: 1 2 3 4 5 6 7 8 9 10 11 12 13 14 15 16 17 18 19 20 21 22 23 24 25
000
FTUS44 KHGX 211727 CCA
TAFLBX
TAF COR
KLBX 211727Z 2118/2218 13014KT P6SM VCSH BKN015 BKN035
     FM220100 13009KT P6SM BKN025 BKN045
     FM220600 17010KT P6SM VCSH BKN025 PROB30 2208/2212 -TSRA
      BKN015CB
     FM221200 34013KT P6SM BKN015=

USA.gov is the U.S. government's official web portal to all federal, state and local government web resources and services.